createdAt,value
2019-03-20T00:02:03.493Z,0.97
2019-03-20T00:07:12.555Z,0.86
2019-03-20T00:12:21.542Z,0.89
2019-03-20T00:17:30.573Z,0.65
2019-03-20T00:22:39.555Z,0.95
2019-03-20T00:27:50.421Z,0.76
2019-03-20T00:32:57.129Z,1.14
2019-03-20T00:38:06.232Z,0.86
2019-03-20T00:43:15.210Z,1.68
2019-03-20T00:48:24.276Z,0.91
2019-03-20T00:53:33.279Z,1.13
2019-03-20T00:58:42.283Z,1.16
2019-03-20T01:03:51.310Z,1.17
2019-03-20T01:09:00.322Z,1.52
2019-03-20T01:14:09.323Z,1.37
2019-03-20T01:19:18.383Z,0.76
2019-03-20T01:24:27.395Z,1.02
2019-03-20T01:29:36.399Z,0.69
2019-03-20T01:34:45.458Z,1.80
2019-03-20T01:39:54.472Z,0.90
2019-03-20T01:45:03.568Z,0.82
2019-03-20T01:50:12.555Z,1.64
2019-03-20T01:55:21.786Z,1.12
2019-03-20T02:00:30.770Z,1.14
2019-03-20T02:05:40.031Z,1.18
2019-03-20T02:10:49.012Z,0.94
2019-03-20T02:15:58.086Z,1.17
2019-03-20T02:21:07.085Z,0.82
2019-03-20T02:26:16.138Z,1.40
2019-03-20T02:31:25.150Z,0.91
2019-03-20T02:36:34.235Z,1.00
2019-03-20T02:41:43.239Z,1.33
2019-03-20T02:46:52.351Z,1.43
2019-03-20T02:52:03.918Z,0.67
2019-03-20T02:57:09.887Z,0.63
2019-03-20T03:02:18.971Z,1.15
2019-03-20T03:07:27.977Z,1.36
2019-03-20T03:12:37.026Z,0.85
2019-03-20T03:17:46.023Z,0.88
2019-03-20T03:22:55.015Z,0.77
2019-03-20T03:28:04.007Z,0.78
2019-03-20T03:33:13.043Z,0.90
2019-03-20T03:38:22.036Z,0.75
2019-03-20T03:43:31.299Z,0.86
2019-03-20T03:48:40.327Z,0.82
2019-03-20T03:53:49.327Z,0.51
2019-03-20T03:58:58.835Z,0.71
2019-03-20T04:04:07.785Z,0.74
2019-03-20T04:09:16.752Z,0.68
2019-03-20T04:14:25.746Z,1.40
2019-03-20T04:19:34.751Z,1.10
2019-03-20T04:24:43.694Z,1.46
2019-03-20T04:29:52.740Z,1.11
2019-03-20T04:35:01.663Z,0.99
2019-03-20T04:40:10.914Z,1.26
2019-03-20T04:45:19.913Z,1.09
2019-03-20T04:50:28.810Z,1.04
2019-03-20T04:55:37.799Z,1.38
2019-03-20T05:00:46.810Z,0.82
2019-03-20T05:05:55.743Z,1.10
2019-03-20T05:11:04.749Z,0.91
2019-03-20T05:16:13.683Z,0.80
2019-03-20T05:21:22.750Z,1.32
2019-03-20T05:26:31.698Z,0.95
2019-03-20T05:31:40.744Z,1.10
2019-03-20T05:36:49.726Z,1.12
2019-03-20T05:41:58.743Z,0.77
2019-03-20T05:47:07.738Z,0.88
2019-03-20T05:52:16.706Z,1.47
2019-03-20T05:57:25.802Z,1.05
2019-03-20T06:02:34.795Z,1.38
2019-03-20T06:07:44.054Z,0.93
2019-03-20T06:12:52.998Z,1.21
2019-03-20T06:18:02.046Z,0.79
2019-03-20T06:23:11.320Z,1.13
2019-03-20T06:28:20.051Z,1.08
2019-03-20T06:33:28.999Z,1.06
2019-03-20T06:38:38.074Z,1.28
2019-03-20T06:43:47.022Z,1.09
2019-03-20T06:48:56.078Z,1.11
2019-03-20T06:54:05.043Z,1.13
2019-03-20T06:59:14.061Z,2.14
2019-03-20T07:04:23.015Z,1.69
2019-03-20T07:09:31.986Z,1.71
2019-03-20T07:14:40.910Z,1.59
2019-03-20T07:19:49.962Z,1.81
2019-03-20T07:24:58.914Z,1.89
2019-03-20T07:30:07.950Z,1.71
2019-03-20T07:35:16.902Z,1.87
2019-03-20T07:40:25.890Z,2.12
2019-03-20T07:45:34.810Z,2.26
2019-03-20T07:50:43.774Z,1.32
2019-03-20T07:55:52.690Z,1.95
2019-03-20T08:01:01.690Z,2.04
2019-03-20T08:06:10.657Z,1.66
2019-03-20T08:11:19.671Z,1.60
2019-03-20T08:16:28.671Z,2.33
2019-03-20T08:21:37.674Z,2.79
2019-03-20T08:26:46.612Z,2.85
2019-03-20T08:31:55.658Z,2.17
2019-03-20T08:37:04.626Z,2.97
2019-03-20T08:42:13.598Z,3.13
2019-03-20T08:47:22.535Z,2.81
2019-03-20T08:52:31.586Z,3.06
2019-03-20T08:57:40.593Z,3.01
2019-03-20T09:02:49.618Z,2.90
2019-03-20T09:07:58.569Z,2.94
2019-03-20T09:13:07.654Z,2.75
2019-03-20T09:18:16.602Z,4.35
2019-03-20T09:23:25.594Z,4.34
2019-03-20T09:28:34.546Z,3.88
2019-03-20T09:33:43.597Z,4.53
2019-03-20T09:38:52.567Z,5.79
2019-03-20T09:44:01.598Z,7.88
2019-03-20T09:49:10.587Z,8.07
2019-03-20T09:54:19.646Z,18.13
2019-03-20T09:59:28.638Z,21.26
2019-03-20T10:04:37.655Z,34.64
2019-03-20T10:09:46.638Z,31.20
2019-03-20T10:14:55.703Z,66.39
2019-03-20T10:20:04.684Z,123.52
2019-03-20T10:25:13.732Z,142.86
2019-03-20T10:30:22.698Z,160.23
2019-03-20T10:35:31.758Z,187.32
2019-03-20T10:40:40.778Z,191.77
2019-03-20T10:45:49.782Z,203.95
2019-03-20T10:50:58.781Z,255.73
2019-03-20T10:56:07.859Z,203.31
2019-03-20T11:01:16.862Z,214.89
2019-03-20T11:06:25.834Z,195.15
2019-03-20T11:11:34.820Z,226.38
2019-03-20T11:16:43.854Z,267.62
2019-03-20T11:21:52.842Z,237.54
2019-03-20T11:27:02.103Z,215.09
2019-03-20T11:32:11.095Z,280.65
2019-03-20T11:37:20.114Z,201.08
2019-03-20T11:42:29.103Z,319.22
2019-03-20T11:47:38.182Z,265.95
2019-03-20T11:52:47.172Z,311.07
2019-03-20T11:57:56.219Z,339.29
2019-03-20T12:03:05.218Z,374.78
2019-03-20T12:08:14.239Z,396.21
2019-03-20T12:13:23.291Z,402.01
2019-03-20T12:18:32.370Z,341.09
2019-03-20T12:23:41.371Z,323.54
2019-03-20T12:28:50.597Z,367.55
2019-03-20T12:34:01.988Z,331.39
2019-03-20T12:39:08.387Z,310.91
2019-03-20T12:44:17.394Z,267.76
2019-03-20T12:49:26.438Z,323.57
2019-03-20T12:54:35.398Z,302.73
2019-03-20T12:59:44.414Z,323.06
2019-03-20T13:04:53.420Z,326.77
2019-03-20T13:10:03.671Z,331.69
2019-03-20T13:15:10.938Z,330.39
2019-03-20T13:20:19.959Z,306.88
2019-03-20T13:25:28.954Z,305.26
2019-03-20T13:30:38.014Z,291.36
2019-03-20T13:35:46.963Z,320.53
2019-03-20T13:40:56.019Z,288.66
2019-03-20T13:46:05.033Z,275.79
2019-03-20T13:51:14.043Z,204.98
2019-03-20T13:56:23.077Z,308.40
2019-03-20T14:01:32.074Z,262.21
2019-03-20T14:06:41.071Z,238.06
2019-03-20T14:11:50.139Z,227.08
2019-03-20T14:16:59.115Z,219.24
2019-03-20T14:22:08.166Z,139.24
2019-03-20T14:27:17.177Z,120.02
2019-03-20T14:32:26.254Z,125.51
2019-03-20T14:37:35.242Z,150.15
2019-03-20T14:42:44.314Z,82.45
2019-03-20T14:47:53.313Z,104.88
2019-03-20T14:53:02.354Z,72.45
2019-03-20T14:58:15.470Z,88.18
2019-03-20T15:03:14.532Z,86.67
2019-03-20T15:08:24.634Z,62.11
2019-03-20T15:13:23.607Z,53.95
2019-03-20T15:18:32.590Z,55.03
2019-03-20T15:23:41.542Z,70.44
2019-03-20T15:28:50.528Z,61.17
2019-03-20T15:33:59.508Z,49.76
2019-03-20T15:39:32.913Z,51.44
2019-03-20T15:44:23.998Z,54.01
2019-03-20T15:49:28.158Z,61.84
2019-03-20T15:54:41.271Z,58.62
2019-03-20T15:59:32.426Z,60.92
2019-03-20T16:04:33.506Z,53.50
2019-03-20T16:09:34.549Z,53.87
2019-03-20T16:14:23.511Z,57.93
2019-03-20T16:19:32.499Z,52.23
2019-03-20T16:24:41.561Z,53.07
2019-03-20T16:29:51.514Z,66.42
2019-03-20T16:35:00.503Z,48.93
2019-03-20T16:40:09.503Z,63.56
2019-03-20T16:45:18.470Z,67.97
2019-03-20T16:50:27.406Z,73.58
2019-03-20T16:55:36.379Z,93.76
2019-03-20T17:00:45.325Z,86.49
2019-03-20T17:05:54.327Z,103.45
2019-03-20T17:11:03.304Z,103.25
2019-03-20T17:16:12.270Z,117.45
2019-03-20T17:21:21.228Z,138.40
2019-03-20T17:26:30.211Z,149.01
2019-03-20T17:31:39.146Z,139.71
2019-03-20T17:36:48.097Z,152.06
2019-03-20T17:41:57.035Z,140.43
2019-03-20T17:47:06.013Z,156.34
2019-03-20T17:52:15.006Z,177.41
2019-03-20T17:57:24.063Z,172.23
2019-03-20T18:02:33.062Z,159.54
2019-03-20T18:07:42.355Z,149.95
2019-03-20T18:12:51.326Z,178.22
2019-03-20T18:18:00.394Z,180.86
2019-03-20T18:23:09.421Z,206.38
2019-03-20T18:28:18.418Z,184.79
2019-03-20T18:33:27.404Z,179.23
2019-03-20T18:38:36.451Z,141.85
2019-03-20T18:43:45.445Z,161.57
2019-03-20T18:48:52.978Z,167.00
2019-03-20T18:54:01.984Z,161.41
2019-03-20T18:59:11.047Z,192.58
2019-03-20T19:04:20.045Z,215.07
2019-03-20T19:09:29.167Z,212.43
2019-03-20T19:14:38.160Z,212.45
2019-03-20T19:19:47.138Z,243.54
2019-03-20T19:24:56.126Z,243.03
2019-03-20T19:30:05.214Z,238.88
2019-03-20T19:35:14.222Z,287.58
2019-03-20T19:40:23.238Z,237.49
2019-03-20T19:45:32.224Z,242.14
2019-03-20T19:50:41.296Z,191.21
2019-03-20T19:55:50.270Z,196.80
2019-03-20T20:00:59.254Z,173.53
2019-03-20T20:06:08.450Z,159.17
2019-03-20T20:11:17.511Z,168.18
2019-03-20T20:16:26.504Z,172.28
2019-03-20T20:21:35.510Z,171.65
2019-03-20T20:26:44.518Z,172.00
2019-03-20T20:31:53.586Z,199.59
2019-03-20T20:37:01.057Z,206.49
2019-03-20T20:42:10.025Z,162.85
2019-03-20T20:47:18.974Z,205.10
2019-03-20T20:52:27.982Z,201.26
2019-03-20T20:57:36.915Z,181.12
2019-03-20T21:02:45.914Z,179.69
2019-03-20T21:07:54.838Z,209.01
2019-03-20T21:13:03.799Z,167.30
2019-03-20T21:18:12.750Z,200.39
2019-03-20T21:23:21.904Z,179.04
2019-03-20T21:28:30.819Z,148.37
2019-03-20T21:33:40.096Z,119.60
2019-03-20T21:38:51.299Z,140.00
2019-03-20T21:43:57.518Z,118.15
2019-03-20T21:49:06.472Z,121.62
2019-03-20T21:54:15.413Z,122.12
2019-03-20T21:59:24.353Z,121.51
2019-03-20T22:04:33.820Z,113.74
2019-03-20T22:09:42.791Z,114.51
2019-03-20T22:14:51.830Z,120.06
2019-03-20T22:20:00.742Z,118.68
2019-03-20T22:25:09.774Z,120.74
2019-03-20T22:30:18.726Z,118.19
2019-03-20T22:35:27.753Z,111.75
2019-03-20T22:40:36.746Z,115.52
2019-03-20T22:45:45.806Z,128.94
2019-03-20T22:50:54.767Z,119.09
2019-03-20T22:56:03.808Z,160.94
2019-03-20T23:01:12.757Z,150.87
2019-03-20T23:06:21.790Z,151.49
2019-03-20T23:11:30.750Z,132.61
2019-03-20T23:16:39.813Z,180.46
2019-03-20T23:21:48.804Z,163.38
2019-03-20T23:26:58.139Z,141.22
2019-03-20T23:32:07.126Z,148.38
2019-03-20T23:37:16.142Z,146.66
2019-03-20T23:42:25.142Z,150.67
2019-03-20T23:47:34.139Z,193.73
2019-03-20T23:52:43.122Z,166.38
2019-03-20T23:57:52.126Z,213.36
